createdAt,value
2022-12-08T00:00:07.618Z,42.81
2022-12-08T00:01:07.607Z,46.10
2022-12-08T00:02:07.686Z,60.72
2022-12-08T00:03:07.688Z,58.56
2022-12-08T00:04:07.566Z,57.64
2022-12-08T00:05:07.561Z,43.75
2022-12-08T00:06:07.560Z,51.80
2022-12-08T00:07:07.543Z,58.58
2022-12-08T00:08:07.595Z,54.35
2022-12-08T00:09:07.529Z,47.67
2022-12-08T00:10:39.836Z,47.31
2022-12-08T00:11:09.514Z,52.79
2022-12-08T00:12:07.521Z,50.42
2022-12-08T00:13:07.497Z,53.21
2022-12-08T00:14:07.486Z,56.24
2022-12-08T00:15:08.159Z,59.88
2022-12-08T00:16:07.545Z,58.84
2022-12-08T00:17:07.491Z,61.19
2022-12-08T00:18:07.464Z,53.70
2022-12-08T00:19:07.449Z,61.42
2022-12-08T00:20:07.442Z,59.48
2022-12-08T00:21:07.451Z,47.50
2022-12-08T00:22:07.426Z,49.55
2022-12-08T00:23:07.428Z,45.53
2022-12-08T00:24:07.412Z,41.01
2022-12-08T00:25:07.406Z,48.25
2022-12-08T00:26:07.402Z,59.48
2022-12-08T00:29:09.990Z,51.68
2022-12-08T00:30:07.956Z,51.08
2022-12-08T00:31:07.957Z,55.17
2022-12-08T00:32:07.993Z,60.84
2022-12-08T00:33:07.935Z,44.74
2022-12-08T00:34:07.926Z,51.86
2022-12-08T00:35:07.921Z,47.85
2022-12-08T00:36:09.014Z,43.45
2022-12-08T00:37:09.009Z,56.18
2022-12-08T00:38:08.999Z,52.63
2022-12-08T00:39:08.986Z,52.99
2022-12-08T00:40:08.973Z,43.32
2022-12-08T00:41:08.966Z,42.10
2022-12-08T00:42:08.990Z,51.49
2022-12-08T00:43:08.949Z,50.90
2022-12-08T00:44:09.828Z,53.24
2022-12-08T00:45:09.955Z,50.96
2022-12-08T00:46:09.005Z,57.20
2022-12-08T00:47:08.927Z,44.49
2022-12-08T00:48:08.915Z,48.98
2022-12-08T00:49:08.911Z,43.27
2022-12-08T00:50:08.898Z,60.79
2022-12-08T00:51:08.891Z,49.10
2022-12-08T00:52:08.908Z,64.43
2022-12-08T00:53:08.891Z,51.53
2022-12-08T00:54:08.872Z,54.07
2022-12-08T00:55:08.863Z,49.84
2022-12-08T00:56:08.855Z,62.81
2022-12-08T00:57:08.856Z,42.58
2022-12-08T00:58:08.843Z,47.71
2022-12-08T00:59:08.838Z,56.64
2022-12-08T01:00:08.836Z,46.09
2022-12-08T01:01:08.860Z,41.88
2022-12-08T01:02:08.815Z,50.71
2022-12-08T01:03:08.841Z,57.33
2022-12-08T01:04:08.805Z,60.50
2022-12-08T01:05:08.783Z,47.62
2022-12-08T01:06:08.773Z,57.27
2022-12-08T01:07:08.768Z,60.83
2022-12-08T01:08:08.899Z,55.01
2022-12-08T01:09:08.754Z,58.04
2022-12-08T01:10:08.743Z,58.80
2022-12-08T01:11:08.740Z,44.79
2022-12-08T01:12:08.746Z,54.75
2022-12-08T01:13:08.725Z,59.28
2022-12-08T01:14:08.722Z,63.22
2022-12-08T01:15:08.713Z,60.04
2022-12-08T01:16:08.755Z,45.47
2022-12-08T01:17:08.755Z,41.84
2022-12-08T01:18:08.687Z,62.14
2022-12-08T01:19:08.683Z,54.35
2022-12-08T01:20:08.684Z,55.27
2022-12-08T01:21:08.659Z,56.96
2022-12-08T01:22:08.664Z,58.27
2022-12-08T01:23:08.646Z,57.00
2022-12-08T01:24:08.645Z,51.77
2022-12-08T01:25:08.633Z,61.71
2022-12-08T01:26:08.620Z,54.00
2022-12-08T01:27:08.619Z,52.74
2022-12-08T01:28:08.605Z,45.69
2022-12-08T01:29:08.606Z,55.71
2022-12-08T01:30:08.615Z,47.12
2022-12-08T01:31:08.633Z,51.48
2022-12-08T01:32:08.574Z,47.63
2022-12-08T01:33:08.573Z,49.85
2022-12-08T01:34:08.609Z,51.46
2022-12-08T01:35:08.553Z,50.43
2022-12-08T01:36:08.551Z,52.79
2022-12-08T01:37:08.551Z,58.17
2022-12-08T01:38:08.539Z,52.75
2022-12-08T01:39:08.536Z,50.92
2022-12-08T01:40:08.522Z,49.78
2022-12-08T01:41:08.511Z,60.00
2022-12-08T01:42:08.496Z,55.55
2022-12-08T01:43:08.497Z,49.82
2022-12-08T01:44:08.557Z,54.26
2022-12-08T01:45:08.477Z,58.55
2022-12-08T01:46:08.533Z,48.25
2022-12-08T01:47:08.462Z,52.80
2022-12-08T01:48:08.529Z,54.91
2022-12-08T01:49:08.450Z,66.20
2022-12-08T01:50:08.438Z,51.87
2022-12-08T01:51:08.438Z,58.87
2022-12-08T01:52:09.347Z,49.12
2022-12-08T01:53:08.419Z,45.79
2022-12-08T01:54:08.401Z,55.69
2022-12-08T01:55:09.407Z,45.53
2022-12-08T01:56:08.429Z,60.07
2022-12-08T01:57:08.408Z,54.96
2022-12-08T01:58:08.377Z,44.05
2022-12-08T01:59:08.378Z,56.57
2022-12-08T02:00:08.642Z,57.36
2022-12-08T02:01:08.373Z,56.80
2022-12-08T02:02:08.392Z,49.13
2022-12-08T02:03:08.371Z,58.24
2022-12-08T02:04:08.335Z,51.17
2022-12-08T02:05:08.334Z,47.56
2022-12-08T02:06:08.330Z,55.27
2022-12-08T02:07:08.539Z,64.85
2022-12-08T02:08:08.362Z,55.29
2022-12-08T02:09:08.301Z,57.24
2022-12-08T02:10:08.320Z,47.15
2022-12-08T02:11:08.293Z,47.65
2022-12-08T02:12:08.284Z,55.62
2022-12-08T02:13:08.300Z,54.88
2022-12-08T02:14:08.339Z,49.41
2022-12-08T02:15:08.339Z,53.54
2022-12-08T02:16:08.715Z,54.62
2022-12-08T02:17:08.250Z,56.77
2022-12-08T02:18:08.233Z,54.22
2022-12-08T02:19:30.158Z,47.54
2022-12-08T02:20:11.872Z,60.28
2022-12-08T02:21:08.213Z,57.52
2022-12-08T02:22:08.213Z,58.92
2022-12-08T02:23:08.192Z,63.00
2022-12-08T02:24:08.194Z,45.41
2022-12-08T02:25:08.188Z,41.75
2022-12-08T02:26:08.218Z,62.74
2022-12-08T02:27:08.206Z,55.40
2022-12-08T02:28:08.172Z,54.33
2022-12-08T02:29:08.165Z,42.49
2022-12-08T02:30:08.216Z,47.89
2022-12-08T02:31:08.303Z,57.06
2022-12-08T02:32:08.131Z,50.57
2022-12-08T02:33:08.133Z,46.00
2022-12-08T02:34:08.124Z,50.85
2022-12-08T02:35:08.109Z,55.59
2022-12-08T02:36:08.106Z,58.55
2022-12-08T02:37:08.118Z,62.43
2022-12-08T02:38:08.083Z,42.29
2022-12-08T02:39:08.114Z,51.67
2022-12-08T02:40:08.275Z,50.83
2022-12-08T02:41:08.065Z,50.51
2022-12-08T02:42:08.077Z,50.78
2022-12-08T02:43:08.042Z,60.04
2022-12-08T02:44:08.034Z,55.81
2022-12-08T02:45:08.033Z,50.59
2022-12-08T02:46:08.161Z,43.87
2022-12-08T02:47:08.033Z,40.11
2022-12-08T02:48:08.003Z,40.45
2022-12-08T02:49:08.005Z,40.95
2022-12-08T02:50:08.006Z,50.34
2022-12-08T02:51:07.986Z,56.62
2022-12-08T02:52:07.978Z,50.69
2022-12-08T02:54:53.203Z,61.29
2022-12-08T02:55:53.191Z,61.08
2022-12-08T02:56:54.277Z,42.73
2022-12-08T02:57:54.279Z,41.88
2022-12-08T02:58:54.260Z,53.12
2022-12-08T02:59:54.255Z,52.79
2022-12-08T03:00:54.252Z,52.37
2022-12-08T03:01:54.286Z,60.17
2022-12-08T03:02:54.327Z,48.24
2022-12-08T03:03:54.262Z,51.96
2022-12-08T03:04:54.225Z,58.76
2022-12-08T03:05:54.206Z,49.74
2022-12-08T03:06:54.201Z,47.66
2022-12-08T03:07:54.254Z,46.49
2022-12-08T03:08:54.180Z,48.70
2022-12-08T03:09:54.175Z,53.36
2022-12-08T03:10:54.165Z,57.44
2022-12-08T03:11:54.162Z,49.76
2022-12-08T03:12:54.170Z,50.01
2022-12-08T03:13:54.150Z,54.96
2022-12-08T03:14:54.147Z,59.34
2022-12-08T03:15:54.193Z,52.00
2022-12-08T03:16:54.118Z,55.21
2022-12-08T03:17:54.130Z,56.29
2022-12-08T03:18:54.132Z,53.59
2022-12-08T03:19:54.104Z,50.47
2022-12-08T03:20:54.090Z,52.03
2022-12-08T03:21:54.087Z,60.50
2022-12-08T03:22:54.072Z,53.19
2022-12-08T03:23:54.072Z,59.98
2022-12-08T03:24:54.071Z,54.89
2022-12-08T03:25:54.051Z,59.63
2022-12-08T03:26:54.066Z,55.87
2022-12-08T03:27:54.036Z,50.20
2022-12-08T03:28:54.032Z,61.21
2022-12-08T03:29:54.024Z,58.49
2022-12-08T03:30:54.106Z,65.09
2022-12-08T03:31:54.009Z,61.84
2022-12-08T03:32:53.997Z,54.33
2022-12-08T03:33:53.992Z,52.29
2022-12-08T03:34:54.680Z,52.44
2022-12-08T03:35:53.974Z,57.07
2022-12-08T03:36:53.971Z,56.84
2022-12-08T03:37:53.959Z,51.64
2022-12-08T03:38:53.981Z,56.84
2022-12-08T03:39:53.945Z,59.08
2022-12-08T03:40:53.937Z,58.95
2022-12-08T03:41:53.943Z,57.56
2022-12-08T03:42:53.924Z,56.58
2022-12-08T03:43:53.906Z,57.98
2022-12-08T03:44:53.906Z,59.89
2022-12-08T03:45:53.898Z,56.72
2022-12-08T03:46:53.881Z,59.01
2022-12-08T03:47:53.886Z,60.15
2022-12-08T03:48:53.867Z,53.78
2022-12-08T03:49:53.855Z,52.75
2022-12-08T03:50:53.861Z,59.69
2022-12-08T03:51:53.849Z,56.35
2022-12-08T03:52:53.835Z,58.97
2022-12-08T03:53:54.842Z,65.17
2022-12-08T03:54:53.822Z,65.14
2022-12-08T03:55:53.831Z,65.42
2022-12-08T03:56:53.814Z,63.22
2022-12-08T03:57:53.802Z,62.08
2022-12-08T03:58:53.792Z,64.09
2022-12-08T03:59:53.797Z,53.67
2022-12-08T04:00:53.846Z,60.29
2022-12-08T04:01:53.838Z,60.83
2022-12-08T04:02:53.902Z,55.80
2022-12-08T04:03:53.768Z,63.48
2022-12-08T04:04:53.745Z,57.21
2022-12-08T04:05:53.756Z,58.21
2022-12-08T04:06:53.765Z,58.86
2022-12-08T04:07:53.806Z,55.91
2022-12-08T04:08:53.724Z,56.29
2022-12-08T04:09:53.707Z,58.41
2022-12-08T04:10:53.778Z,55.65
2022-12-08T04:11:53.703Z,61.06
2022-12-08T04:12:53.704Z,69.28
2022-12-08T04:13:53.686Z,63.71
2022-12-08T04:14:53.700Z,59.91
2022-12-08T04:15:53.760Z,63.38
2022-12-08T04:16:53.694Z,64.77
2022-12-08T04:17:53.648Z,61.12
2022-12-08T04:18:53.664Z,64.30
2022-12-08T04:19:53.631Z,67.03
2022-12-08T04:20:53.681Z,63.19
2022-12-08T04:21:53.628Z,60.70
2022-12-08T04:22:53.612Z,62.82
2022-12-08T04:23:57.635Z,63.58
2022-12-08T04:24:56.163Z,63.39
2022-12-08T04:25:53.688Z,58.26
2022-12-08T04:26:53.607Z,60.05
2022-12-08T04:27:53.575Z,58.41
2022-12-08T04:28:53.563Z,60.89
2022-12-08T04:29:53.560Z,62.66
2022-12-08T04:30:53.597Z,61.71
2022-12-08T04:31:53.543Z,64.36
2022-12-08T04:32:53.539Z,63.06
2022-12-08T04:33:53.521Z,57.19
2022-12-08T04:34:53.522Z,65.08
2022-12-08T04:35:53.623Z,62.77
2022-12-08T04:36:53.514Z,60.52
2022-12-08T04:37:53.497Z,66.51
2022-12-08T04:38:54.098Z,65.23
2022-12-08T04:39:53.496Z,63.61
2022-12-08T04:40:53.488Z,63.24
2022-12-08T04:41:53.475Z,60.13
2022-12-08T04:42:53.473Z,61.68
2022-12-08T04:43:53.449Z,63.38
2022-12-08T04:44:53.440Z,61.56
2022-12-08T04:45:53.488Z,62.34
2022-12-08T04:46:53.517Z,63.23
2022-12-08T04:47:53.429Z,62.35
2022-12-08T04:48:53.408Z,65.44
2022-12-08T04:49:53.403Z,68.44
2022-12-08T04:50:53.413Z,67.22
2022-12-08T04:51:53.387Z,67.48
2022-12-08T04:52:53.408Z,66.98
2022-12-08T04:53:53.385Z,63.13
2022-12-08T04:54:53.413Z,61.36
2022-12-08T04:55:53.365Z,63.14
2022-12-08T04:56:53.366Z,62.63
2022-12-08T04:57:53.347Z,63.33
2022-12-08T04:58:53.339Z,65.64
2022-12-08T04:59:53.326Z,64.97
2022-12-08T05:00:53.446Z,62.90
2022-12-08T05:01:53.484Z,61.96
2022-12-08T05:02:53.375Z,66.41
2022-12-08T05:03:53.301Z,64.65
2022-12-08T05:04:53.295Z,64.98
2022-12-08T05:05:53.281Z,64.89
2022-12-08T05:06:53.283Z,61.42
2022-12-08T05:07:53.308Z,63.81
2022-12-08T05:08:53.260Z,63.30
2022-12-08T05:09:53.255Z,62.42
2022-12-08T05:10:53.246Z,63.90
2022-12-08T05:11:53.237Z,62.42
2022-12-08T05:12:53.236Z,63.79
2022-12-08T05:13:53.243Z,63.63
2022-12-08T05:14:53.219Z,59.06
2022-12-08T05:15:53.272Z,67.11
2022-12-08T05:16:53.240Z,69.33
2022-12-08T05:17:53.204Z,68.91
2022-12-08T05:18:53.177Z,68.74
2022-12-08T05:19:54.193Z,67.24
2022-12-08T05:20:53.168Z,65.39
2022-12-08T05:21:53.184Z,68.48
2022-12-08T05:22:53.156Z,67.11
2022-12-08T05:23:53.145Z,65.32
2022-12-08T05:24:53.136Z,65.06
2022-12-08T05:25:53.126Z,63.13
2022-12-08T05:26:53.123Z,69.16
2022-12-08T05:28:01.666Z,69.51
2022-12-08T05:28:55.099Z,66.07
2022-12-08T05:29:53.088Z,64.52
2022-12-08T05:30:53.091Z,67.86
2022-12-08T05:31:53.168Z,66.19
2022-12-08T05:32:53.085Z,65.00
2022-12-08T05:33:53.069Z,63.61
2022-12-08T05:34:53.077Z,66.30
2022-12-08T05:35:53.054Z,67.43
2022-12-08T05:36:53.042Z,63.26
2022-12-08T05:37:53.034Z,67.69
2022-12-08T05:38:53.059Z,63.95
2022-12-08T05:39:53.015Z,66.93
2022-12-08T05:40:53.056Z,64.56
2022-12-08T05:41:53.006Z,63.54
2022-12-08T05:42:52.999Z,69.61
2022-12-08T05:43:52.995Z,67.14
2022-12-08T05:44:52.976Z,65.49
2022-12-08T05:45:53.029Z,65.33
2022-12-08T05:46:52.961Z,65.97
2022-12-08T05:47:52.965Z,65.85
2022-12-08T05:48:52.965Z,64.21
2022-12-08T05:49:52.943Z,69.04
2022-12-08T05:50:52.939Z,68.95
2022-12-08T05:51:52.941Z,69.18
2022-12-08T05:52:53.562Z,66.48
2022-12-08T05:53:53.694Z,64.23
2022-12-08T05:54:52.907Z,66.20
2022-12-08T05:55:52.897Z,64.67
2022-12-08T05:56:52.891Z,64.63
2022-12-08T05:57:52.895Z,65.95
2022-12-08T05:58:52.877Z,67.78
2022-12-08T05:59:52.868Z,64.73
2022-12-08T06:00:52.859Z,67.57
2022-12-08T06:01:52.918Z,65.89
2022-12-08T06:02:52.978Z,68.68
2022-12-08T06:03:54.691Z,68.06
2022-12-08T06:04:52.830Z,66.28
2022-12-08T06:05:52.817Z,63.82
2022-12-08T06:06:53.686Z,64.59
2022-12-08T06:07:52.915Z,66.65
2022-12-08T06:08:52.795Z,66.90
2022-12-08T06:09:52.786Z,66.91
2022-12-08T06:10:52.780Z,66.11
2022-12-08T06:11:52.773Z,67.91
2022-12-08T06:12:52.754Z,67.49
2022-12-08T06:13:53.693Z,65.70
2022-12-08T06:14:52.749Z,67.21
2022-12-08T06:15:52.734Z,67.73
2022-12-08T06:16:52.782Z,68.95
2022-12-08T06:17:52.717Z,65.23
2022-12-08T06:18:52.718Z,65.88
2022-12-08T06:19:52.702Z,66.32
2022-12-08T06:20:52.697Z,70.21
2022-12-08T06:21:52.708Z,69.55
2022-12-08T06:22:52.677Z,68.63
2022-12-08T06:23:52.675Z,67.01
2022-12-08T06:24:52.666Z,70.42
2022-12-08T06:25:52.654Z,67.68
2022-12-08T06:26:52.657Z,63.70
2022-12-08T06:27:52.644Z,67.64
2022-12-08T06:28:52.636Z,68.47
2022-12-08T06:29:52.630Z,66.32
2022-12-08T06:30:52.618Z,69.88
2022-12-08T06:31:52.708Z,68.56
2022-12-08T06:32:52.601Z,67.97
2022-12-08T06:33:52.607Z,70.08
2022-12-08T06:34:52.586Z,67.50
2022-12-08T06:35:52.578Z,67.96
2022-12-08T06:36:52.573Z,68.55
2022-12-08T06:37:52.694Z,68.00
2022-12-08T06:38:52.559Z,70.64
2022-12-08T06:39:52.551Z,68.57
2022-12-08T06:40:52.546Z,68.64
2022-12-08T06:41:52.529Z,68.04
2022-12-08T06:42:52.518Z,67.88
2022-12-08T06:43:52.632Z,68.52
2022-12-08T06:44:52.517Z,67.83
2022-12-08T06:45:52.546Z,66.15
2022-12-08T06:46:52.520Z,68.96
2022-12-08T06:47:52.484Z,68.88
2022-12-08T06:48:52.484Z,68.96
2022-12-08T06:49:52.469Z,68.57
2022-12-08T06:50:52.461Z,67.21
2022-12-08T06:51:52.451Z,68.30
2022-12-08T06:53:02.689Z,69.57
2022-12-08T06:53:54.468Z,68.67
2022-12-08T06:54:52.484Z,68.50
2022-12-08T06:55:59.434Z,68.58
2022-12-08T06:56:54.420Z,69.56
2022-12-08T06:57:54.169Z,68.77
2022-12-08T06:58:53.438Z,69.04
2022-12-08T06:59:52.436Z,69.25
2022-12-08T07:00:52.480Z,68.45
2022-12-08T07:01:52.487Z,67.23
2022-12-08T07:02:52.440Z,71.61
2022-12-08T07:03:52.359Z,67.60
2022-12-08T07:04:53.112Z,68.04
2022-12-08T07:05:52.345Z,70.02
2022-12-08T07:06:52.334Z,69.09
2022-12-08T07:07:52.434Z,67.80
2022-12-08T07:08:52.325Z,66.27
2022-12-08T07:09:52.317Z,67.32
2022-12-08T07:10:52.361Z,72.04
2022-12-08T07:11:52.296Z,68.32
2022-12-08T07:12:52.285Z,66.70
2022-12-08T07:13:52.287Z,66.88
2022-12-08T07:14:52.277Z,66.49
2022-12-08T07:15:52.276Z,67.78
2022-12-08T07:16:52.368Z,66.87
2022-12-08T07:17:57.892Z,68.03
2022-12-08T07:18:54.244Z,69.68
2022-12-08T07:19:53.134Z,66.64
2022-12-08T07:20:52.241Z,68.92
2022-12-08T07:21:52.214Z,67.94
2022-12-08T07:22:52.204Z,66.99
2022-12-08T07:23:57.427Z,68.26
2022-12-08T07:24:55.121Z,68.54
2022-12-08T07:25:52.191Z,68.41
2022-12-08T07:26:52.176Z,68.69
2022-12-08T07:27:52.164Z,67.25
2022-12-08T07:28:52.158Z,66.64
2022-12-08T07:29:52.148Z,67.97
2022-12-08T07:30:52.195Z,67.53
2022-12-08T07:31:52.133Z,68.18
2022-12-08T07:32:53.120Z,68.76
2022-12-08T07:33:52.138Z,67.45
2022-12-08T07:34:52.128Z,66.67
2022-12-08T07:35:52.107Z,69.01
2022-12-08T07:36:52.091Z,67.74
2022-12-08T07:37:52.085Z,65.92
2022-12-08T07:38:52.096Z,66.98
2022-12-08T07:39:52.080Z,68.94
2022-12-08T07:40:52.060Z,65.86
2022-12-08T07:41:52.054Z,66.22
2022-12-08T07:42:52.040Z,67.14
2022-12-08T07:43:52.045Z,68.39
2022-12-08T07:44:52.039Z,67.98
2022-12-08T07:45:52.093Z,67.54
2022-12-08T07:46:52.026Z,66.45
2022-12-08T07:47:52.019Z,66.26
2022-12-08T07:48:51.998Z,67.06
2022-12-08T07:49:51.995Z,68.72
2022-12-08T07:50:51.988Z,67.17
2022-12-08T07:51:51.969Z,68.40
2022-12-08T07:52:51.990Z,68.45
2022-12-08T07:53:54.548Z,68.33
2022-12-08T07:54:53.008Z,67.45
2022-12-08T07:55:51.946Z,69.48
2022-12-08T07:56:51.953Z,69.13
2022-12-08T07:57:51.921Z,68.96
2022-12-08T07:58:51.920Z,68.11
2022-12-08T07:59:51.907Z,69.53
2022-12-08T08:00:51.935Z,68.41
2022-12-08T08:02:06.517Z,68.62
2022-12-08T08:02:53.974Z,68.75
2022-12-08T08:03:51.871Z,69.34
2022-12-08T08:04:51.946Z,66.91
2022-12-08T08:05:51.857Z,66.77
2022-12-08T08:06:51.863Z,66.44
2022-12-08T08:07:51.932Z,67.34
2022-12-08T08:08:51.832Z,65.29
2022-12-08T08:09:51.835Z,68.47
2022-12-08T08:10:51.821Z,66.51
2022-12-08T08:12:14.419Z,67.85
2022-12-08T08:12:53.817Z,68.15
2022-12-08T08:13:51.826Z,66.84
2022-12-08T08:14:52.632Z,66.33
2022-12-08T08:15:51.889Z,68.29
2022-12-08T08:16:51.927Z,68.00
2022-12-08T08:17:51.759Z,67.37
2022-12-08T08:18:52.630Z,68.82
2022-12-08T08:19:53.637Z,68.37
2022-12-08T08:20:51.753Z,71.24
2022-12-08T08:21:51.742Z,69.75
2022-12-08T08:22:51.729Z,72.78
2022-12-08T08:23:51.720Z,69.97
2022-12-08T08:24:51.741Z,69.44
2022-12-08T08:25:51.700Z,69.71
2022-12-08T08:26:51.697Z,71.25
2022-12-08T08:27:51.682Z,70.00
2022-12-08T08:28:51.680Z,68.75
2022-12-08T08:29:51.665Z,69.97
2022-12-08T08:30:51.729Z,68.86
2022-12-08T08:31:51.666Z,69.35
2022-12-08T08:32:51.643Z,70.13
2022-12-08T08:33:52.211Z,71.27
2022-12-08T08:34:51.626Z,69.59
2022-12-08T08:35:51.626Z,68.41
2022-12-08T08:36:51.727Z,70.62
2022-12-08T08:37:52.061Z,70.37
2022-12-08T08:38:51.604Z,70.58
2022-12-08T08:39:51.596Z,71.94
2022-12-08T08:40:51.583Z,71.56
2022-12-08T08:41:51.604Z,70.78
2022-12-08T08:42:51.573Z,71.16
2022-12-08T08:43:51.560Z,68.68
2022-12-08T08:44:51.552Z,69.99
2022-12-08T08:45:51.555Z,71.01
2022-12-08T08:46:51.569Z,66.58
2022-12-08T08:47:52.528Z,70.19
2022-12-08T08:48:51.523Z,72.05
2022-12-08T08:49:51.504Z,69.99
2022-12-08T08:50:51.519Z,71.03
2022-12-08T08:51:51.523Z,68.71
2022-12-08T08:52:51.472Z,69.44
2022-12-08T08:53:52.477Z,69.78
2022-12-08T08:54:52.142Z,70.66
2022-12-08T08:55:51.452Z,68.82
2022-12-08T08:56:51.466Z,68.04
2022-12-08T08:57:51.444Z,71.00
2022-12-08T08:58:51.447Z,68.48
2022-12-08T08:59:51.459Z,70.22
2022-12-08T09:00:51.449Z,70.76
2022-12-08T09:01:51.561Z,69.38
2022-12-08T09:02:51.404Z,70.90
2022-12-08T09:03:51.432Z,71.04
2022-12-08T09:04:51.507Z,71.00
2022-12-08T09:05:51.458Z,69.54
2022-12-08T09:06:51.384Z,69.41
2022-12-08T09:07:51.408Z,68.78
2022-12-08T09:08:51.348Z,68.58
2022-12-08T09:09:51.340Z,69.77
2022-12-08T09:10:51.343Z,68.91
2022-12-08T09:11:51.339Z,70.07
2022-12-08T09:12:52.213Z,68.80
2022-12-08T09:13:51.319Z,67.88
2022-12-08T09:14:51.318Z,67.39
2022-12-08T09:15:51.374Z,69.41
2022-12-08T09:16:51.338Z,68.28
2022-12-08T09:17:52.217Z,68.34
2022-12-08T09:18:51.285Z,69.55
2022-12-08T09:19:51.261Z,67.74
2022-12-08T09:20:51.260Z,70.32
2022-12-08T09:21:51.260Z,70.94
2022-12-08T09:22:52.145Z,70.50
2022-12-08T09:23:51.249Z,70.02
2022-12-08T09:24:51.221Z,69.94
2022-12-08T09:25:51.282Z,69.18
2022-12-08T09:26:51.213Z,71.55
2022-12-08T09:27:51.203Z,69.51
2022-12-08T09:28:51.191Z,69.82
2022-12-08T09:29:51.186Z,68.61
2022-12-08T09:30:51.219Z,68.75
2022-12-08T09:31:51.214Z,70.24
2022-12-08T09:32:51.166Z,69.00
2022-12-08T09:33:51.153Z,70.27
2022-12-08T09:34:52.341Z,71.85
2022-12-08T09:35:52.130Z,70.52
2022-12-08T09:36:51.644Z,71.61
2022-12-08T09:37:51.117Z,68.85
2022-12-08T09:38:51.138Z,67.97
2022-12-08T09:39:51.104Z,70.14
2022-12-08T09:40:51.101Z,68.68
2022-12-08T09:41:51.089Z,66.90
2022-12-08T09:42:51.076Z,69.16
2022-12-08T09:43:51.079Z,69.49
2022-12-08T09:44:51.063Z,70.13
2022-12-08T09:45:51.053Z,69.25
2022-12-08T09:46:51.181Z,67.60
2022-12-08T09:47:51.037Z,69.05
2022-12-08T09:48:51.026Z,69.76
2022-12-08T09:49:51.024Z,72.23
2022-12-08T09:50:51.016Z,70.38
2022-12-08T09:51:51.006Z,69.56
2022-12-08T09:52:51.026Z,68.57
2022-12-08T09:53:50.989Z,68.89
2022-12-08T09:54:50.983Z,68.08
2022-12-08T09:55:50.985Z,67.35
2022-12-08T09:56:50.969Z,70.42
2022-12-08T09:57:56.099Z,69.95
2022-12-08T09:58:51.954Z,68.26
2022-12-08T09:59:50.945Z,69.19
2022-12-08T10:00:50.964Z,68.74
2022-12-08T10:01:51.073Z,69.79
2022-12-08T10:02:50.923Z,70.23
2022-12-08T10:03:50.913Z,71.99
2022-12-08T10:04:50.940Z,68.53
2022-12-08T10:05:50.910Z,68.98
2022-12-08T10:06:50.904Z,66.76
2022-12-08T10:07:50.943Z,67.82
2022-12-08T10:08:50.867Z,72.73
2022-12-08T10:09:50.887Z,74.68
2022-12-08T10:10:50.932Z,69.74
2022-12-08T10:11:50.844Z,68.57
2022-12-08T10:12:50.853Z,69.50
2022-12-08T10:13:50.853Z,67.87
2022-12-08T10:14:50.841Z,67.22
2022-12-08T10:15:50.874Z,69.61
2022-12-08T10:16:50.826Z,69.58
2022-12-08T10:17:50.805Z,71.35
2022-12-08T10:18:50.799Z,70.30
2022-12-08T10:19:50.803Z,69.07
2022-12-08T10:20:50.830Z,67.30
2022-12-08T10:21:50.772Z,68.31
2022-12-08T10:22:50.760Z,68.37
2022-12-08T10:23:50.780Z,68.89
2022-12-08T10:24:50.755Z,67.54
2022-12-08T10:25:50.742Z,67.99
2022-12-08T10:26:50.739Z,70.52
2022-12-08T10:27:50.723Z,67.22
2022-12-08T10:28:50.717Z,67.49
2022-12-08T10:29:50.725Z,70.18
2022-12-08T10:30:50.710Z,68.81
2022-12-08T10:31:50.767Z,67.61
2022-12-08T10:32:50.687Z,70.11
2022-12-08T10:33:50.678Z,71.39
2022-12-08T10:34:54.972Z,68.05
2022-12-08T10:35:52.706Z,70.61
2022-12-08T10:36:51.235Z,70.63
2022-12-08T10:37:50.770Z,70.86
2022-12-08T10:38:50.634Z,68.54
2022-12-08T10:39:50.632Z,68.01
2022-12-08T10:40:50.651Z,67.43
2022-12-08T10:41:50.611Z,70.49
2022-12-08T10:42:52.236Z,70.58
2022-12-08T10:43:50.723Z,65.30
2022-12-08T10:44:50.587Z,70.01
2022-12-08T10:45:50.634Z,69.86
2022-12-08T10:46:50.635Z,68.61
2022-12-08T10:47:55.269Z,67.05
2022-12-08T10:48:52.604Z,66.46
2022-12-08T10:49:50.572Z,68.70
2022-12-08T10:50:50.543Z,70.51
2022-12-08T10:51:50.561Z,67.43
2022-12-08T10:52:50.539Z,68.73
2022-12-08T10:53:50.552Z,71.27
2022-12-08T10:54:50.520Z,68.41
2022-12-08T10:55:50.520Z,68.50
2022-12-08T10:56:50.533Z,68.78
2022-12-08T10:57:50.550Z,70.35
2022-12-08T10:58:50.492Z,69.95
2022-12-08T10:59:50.489Z,70.73
2022-12-08T11:00:51.247Z,69.59
2022-12-08T11:01:50.608Z,69.16
2022-12-08T11:02:51.584Z,67.99
2022-12-08T11:03:50.442Z,68.36
2022-12-08T11:04:51.459Z,69.61
2022-12-08T11:05:50.522Z,69.64
2022-12-08T11:06:50.457Z,67.91
2022-12-08T11:07:51.287Z,65.47
2022-12-08T11:08:50.440Z,72.16
2022-12-08T11:09:50.413Z,69.42
2022-12-08T11:10:50.398Z,68.55
2022-12-08T11:11:50.385Z,68.45
2022-12-08T11:12:50.382Z,68.12
2022-12-08T11:13:50.367Z,71.03
2022-12-08T11:14:50.380Z,68.53
2022-12-08T11:15:50.354Z,74.67
2022-12-08T11:16:51.201Z,68.71
2022-12-08T11:17:53.370Z,65.95
2022-12-08T11:18:52.376Z,69.72
2022-12-08T11:19:50.326Z,74.74
2022-12-08T11:20:50.342Z,69.35
2022-12-08T11:21:50.312Z,71.38
2022-12-08T11:22:51.234Z,67.23
2022-12-08T11:23:50.300Z,66.80
2022-12-08T11:24:50.325Z,69.96
2022-12-08T11:25:50.277Z,68.93
2022-12-08T11:26:50.307Z,67.56
2022-12-08T11:27:50.267Z,69.29
2022-12-08T11:28:50.252Z,69.33
2022-12-08T11:29:50.245Z,69.23
2022-12-08T11:30:50.262Z,70.48
2022-12-08T11:31:50.313Z,67.57
2022-12-08T11:32:50.219Z,68.84
2022-12-08T11:33:50.275Z,67.29
2022-12-08T11:34:50.212Z,67.47
2022-12-08T11:35:50.200Z,69.82
2022-12-08T11:36:50.198Z,70.02
2022-12-08T11:37:50.185Z,69.21
2022-12-08T11:38:50.173Z,71.91
2022-12-08T11:39:50.190Z,67.27
2022-12-08T11:40:50.182Z,69.56
2022-12-08T11:41:50.155Z,69.03
2022-12-08T11:42:50.148Z,69.67
2022-12-08T11:43:50.137Z,68.90
2022-12-08T11:44:50.135Z,66.81
2022-12-08T11:45:50.151Z,66.62
2022-12-08T11:46:50.110Z,67.36
2022-12-08T11:47:55.465Z,66.50
2022-12-08T11:48:52.123Z,68.76
2022-12-08T11:49:50.120Z,70.07
2022-12-08T11:50:50.080Z,67.64
2022-12-08T11:51:50.098Z,65.94
2022-12-08T11:52:50.072Z,68.10
2022-12-08T11:53:50.058Z,69.73
2022-12-08T11:54:50.082Z,68.58
2022-12-08T11:55:50.674Z,68.50
2022-12-08T11:56:51.073Z,66.83
2022-12-08T11:57:50.111Z,70.32
2022-12-08T11:58:50.026Z,67.08
2022-12-08T11:59:50.010Z,68.47
2022-12-08T12:00:50.010Z,69.21
2022-12-08T12:01:50.054Z,68.35
2022-12-08T12:02:50.090Z,68.82
2022-12-08T12:03:50.016Z,71.24
2022-12-08T12:04:49.980Z,67.47
2022-12-08T12:06:12.967Z,66.95
2022-12-08T12:06:55.728Z,68.61
2022-12-08T12:07:51.007Z,66.61
2022-12-08T12:08:49.945Z,67.14
2022-12-08T12:09:49.927Z,69.62
2022-12-08T12:10:49.919Z,67.26
2022-12-08T12:11:49.917Z,68.59
2022-12-08T12:12:50.675Z,68.41
2022-12-08T12:13:49.974Z,69.25
2022-12-08T12:14:49.893Z,69.21
2022-12-08T12:15:49.887Z,70.50
2022-12-08T12:16:49.941Z,69.51
2022-12-08T12:17:49.878Z,69.00
2022-12-08T12:18:50.676Z,68.76
2022-12-08T12:19:50.775Z,70.21
2022-12-08T12:20:49.850Z,69.56
2022-12-08T12:21:49.861Z,70.40
2022-12-08T12:22:49.842Z,69.03
2022-12-08T12:23:49.822Z,70.90
2022-12-08T12:24:49.823Z,68.42
2022-12-08T12:25:49.809Z,66.16
2022-12-08T12:26:50.745Z,66.53
2022-12-08T12:27:49.791Z,68.46
2022-12-08T12:28:49.800Z,68.49
2022-12-08T12:30:05.580Z,65.21
2022-12-08T12:30:51.806Z,67.92
2022-12-08T12:31:49.753Z,66.10
2022-12-08T12:32:49.765Z,67.85
2022-12-08T12:33:49.729Z,68.50
2022-12-08T12:34:50.763Z,67.15
2022-12-08T12:35:49.718Z,68.69
2022-12-08T12:36:49.708Z,67.05
2022-12-08T12:37:49.953Z,64.84
2022-12-08T12:38:49.700Z,65.88
2022-12-08T12:39:49.686Z,67.73
2022-12-08T12:40:49.683Z,66.32
2022-12-08T12:41:49.676Z,68.18
2022-12-08T12:42:49.704Z,67.17
2022-12-08T12:43:51.267Z,66.96
2022-12-08T12:44:50.174Z,65.84
2022-12-08T12:45:49.751Z,65.66
2022-12-08T12:46:49.662Z,67.88
2022-12-08T12:47:54.293Z,69.18
2022-12-08T12:48:51.628Z,67.71
2022-12-08T12:49:49.640Z,70.80
2022-12-08T12:50:49.627Z,68.26
2022-12-08T12:51:49.644Z,68.66
2022-12-08T12:52:49.587Z,69.03
2022-12-08T12:53:49.577Z,68.25
2022-12-08T12:54:49.617Z,70.13
2022-12-08T12:55:49.580Z,67.85